sensor_id;sensor_type;location;lat;lon;timestamp;P1;durP1;ratioP1;P2;durP2;ratioP2
8333;SDS011;4204;43.004;23.052;2023-05-10T00:02:22;1.20;;;1.10;;
8333;SDS011;4204;43.004;23.052;2023-05-10T00:04:51;1.03;;;0.93;;
8333;SDS011;4204;43.004;23.052;2023-05-10T00:07:18;0.97;;;0.90;;
8333;SDS011;4204;43.004;23.052;2023-05-10T00:09:46;0.80;;;0.80;;
8333;SDS011;4204;43.004;23.052;2023-05-10T00:12:13;2.33;;;1.00;;
8333;SDS011;4204;43.004;23.052;2023-05-10T00:14:40;1.20;;;1.00;;
8333;SDS011;4204;43.004;23.052;2023-05-10T00:17:07;1.40;;;1.13;;
8333;SDS011;4204;43.004;23.052;2023-05-10T00:19:34;1.03;;;1.00;;
8333;SDS011;4204;43.004;23.052;2023-05-10T00:22:03;1.10;;;1.00;;
8333;SDS011;4204;43.004;23.052;2023-05-10T00:24:30;2.07;;;1.10;;
8333;SDS011;4204;43.004;23.052;2023-05-10T00:26:57;1.20;;;1.10;;
8333;SDS011;4204;43.004;23.052;2023-05-10T00:29:24;1.30;;;1.20;;
8333;SDS011;4204;43.004;23.052;2023-05-10T00:31:53;1.70;;;1.60;;
8333;SDS011;4204;43.004;23.052;2023-05-10T00:34:21;1.50;;;1.40;;
8333;SDS011;4204;43.004;23.052;2023-05-10T00:36:48;2.50;;;1.70;;
8333;SDS011;4204;43.004;23.052;2023-05-10T00:39:16;2.57;;;1.67;;
8333;SDS011;4204;43.004;23.052;2023-05-10T00:41:44;1.97;;;1.77;;
8333;SDS011;4204;43.004;23.052;2023-05-10T00:44:11;1.40;;;1.30;;
8333;SDS011;4204;43.004;23.052;2023-05-10T00:46:38;1.57;;;1.47;;
8333;SDS011;4204;43.004;23.052;2023-05-10T00:49:06;1.80;;;1.70;;
8333;SDS011;4204;43.004;23.052;2023-05-10T00:51:33;1.90;;;1.70;;
8333;SDS011;4204;43.004;23.052;2023-05-10T00:54:00;1.77;;;1.60;;
8333;SDS011;4204;43.004;23.052;2023-05-10T00:56:29;1.87;;;1.70;;
8333;SDS011;4204;43.004;23.052;2023-05-10T00:58:56;1.70;;;1.60;;
8333;SDS011;4204;43.004;23.052;2023-05-10T01:01:24;1.60;;;1.50;;
8333;SDS011;4204;43.004;23.052;2023-05-10T01:03:51;1.80;;;1.53;;
8333;SDS011;4204;43.004;23.052;2023-05-10T01:06:19;1.67;;;1.57;;
8333;SDS011;4204;43.004;23.052;2023-05-10T01:08:46;1.60;;;1.50;;
8333;SDS011;4204;43.004;23.052;2023-05-10T01:11:14;1.50;;;1.40;;
8333;SDS011;4204;43.004;23.052;2023-05-10T01:13:43;1.93;;;1.73;;
8333;SDS011;4204;43.004;23.052;2023-05-10T01:16:10;1.77;;;1.50;;
8333;SDS011;4204;43.004;23.052;2023-05-10T01:18:38;1.83;;;1.70;;
8333;SDS011;4204;43.004;23.052;2023-05-10T01:21:11;2.63;;;1.60;;
8333;SDS011;4204;43.004;23.052;2023-05-10T01:23:44;1.73;;;1.47;;
8333;SDS011;4204;43.004;23.052;2023-05-10T01:26:19;1.57;;;1.47;;
8333;SDS011;4204;43.004;23.052;2023-05-10T01:29:01;1.90;;;1.70;;
8333;SDS011;4204;43.004;23.052;2023-05-10T01:34:16;2.00;;;1.83;;
8333;SDS011;4204;43.004;23.052;2023-05-10T01:36:45;2.07;;;1.83;;
8333;SDS011;4204;43.004;23.052;2023-05-10T01:39:15;2.47;;;2.17;;
8333;SDS011;4204;43.004;23.052;2023-05-10T01:41:46;2.27;;;2.00;;
8333;SDS011;4204;43.004;23.052;2023-05-10T01:44:16;2.53;;;2.13;;
8333;SDS011;4204;43.004;23.052;2023-05-10T01:46:46;3.10;;;2.50;;
8333;SDS011;4204;43.004;23.052;2023-05-10T01:49:19;2.57;;;2.30;;
8333;SDS011;4204;43.004;23.052;2023-05-10T01:51:49;2.30;;;2.10;;
8333;SDS011;4204;43.004;23.052;2023-05-10T01:54:19;2.77;;;2.30;;
8333;SDS011;4204;43.004;23.052;2023-05-10T01:56:47;2.43;;;2.20;;
8333;SDS011;4204;43.004;23.052;2023-05-10T01:59:17;2.60;;;2.40;;
8333;SDS011;4204;43.004;23.052;2023-05-10T02:01:45;2.70;;;2.33;;
8333;SDS011;4204;43.004;23.052;2023-05-10T02:04:13;3.00;;;2.27;;
8333;SDS011;4204;43.004;23.052;2023-05-10T02:06:44;2.57;;;2.37;;
8333;SDS011;4204;43.004;23.052;2023-05-10T02:09:12;2.67;;;2.47;;
8333;SDS011;4204;43.004;23.052;2023-05-10T02:11:41;2.70;;;2.40;;
8333;SDS011;4204;43.004;23.052;2023-05-10T02:14:09;2.60;;;2.40;;
8333;SDS011;4204;43.004;23.052;2023-05-10T02:16:36;3.67;;;2.40;;
8333;SDS011;4204;43.004;23.052;2023-05-10T02:19:05;2.47;;;2.27;;
8333;SDS011;4204;43.004;23.052;2023-05-10T02:21:34;2.40;;;2.20;;
8333;SDS011;4204;43.004;23.052;2023-05-10T02:24:03;2.53;;;2.33;;
8333;SDS011;4204;43.004;23.052;2023-05-10T02:26:31;2.60;;;2.40;;
8333;SDS011;4204;43.004;23.052;2023-05-10T02:28:59;3.13;;;2.30;;
8333;SDS011;4204;43.004;23.052;2023-05-10T02:31:28;2.30;;;2.10;;
8333;SDS011;4204;43.004;23.052;2023-05-10T02:33:57;2.50;;;2.30;;
8333;SDS011;4204;43.004;23.052;2023-05-10T02:36:25;2.43;;;2.03;;
8333;SDS011;4204;43.004;23.052;2023-05-10T02:38:53;2.10;;;1.90;;
8333;SDS011;4204;43.004;23.052;2023-05-10T02:41:24;2.53;;;2.20;;
8333;SDS011;4204;43.004;23.052;2023-05-10T02:43:52;2.87;;;2.30;;
8333;SDS011;4204;43.004;23.052;2023-05-10T02:46:23;2.60;;;2.40;;
8333;SDS011;4204;43.004;23.052;2023-05-10T02:48:51;2.97;;;2.23;;
8333;SDS011;4204;43.004;23.052;2023-05-10T02:51:18;2.40;;;2.20;;
8333;SDS011;4204;43.004;23.052;2023-05-10T02:53:46;2.23;;;2.03;;
8333;SDS011;4204;43.004;23.052;2023-05-10T02:56:17;2.83;;;2.17;;
8333;SDS011;4204;43.004;23.052;2023-05-10T02:58:48;2.13;;;1.93;;
8333;SDS011;4204;43.004;23.052;2023-05-10T03:01:16;2.10;;;1.90;;
8333;SDS011;4204;43.004;23.052;2023-05-10T03:03:43;2.10;;;1.90;;
8333;SDS011;4204;43.004;23.052;2023-05-10T03:06:11;2.20;;;2.00;;
8333;SDS011;4204;43.004;23.052;2023-05-10T03:08:38;2.30;;;2.10;;
8333;SDS011;4204;43.004;23.052;2023-05-10T03:11:22;2.23;;;2.03;;
8333;SDS011;4204;43.004;23.052;2023-05-10T03:13:55;2.37;;;2.10;;
8333;SDS011;4204;43.004;23.052;2023-05-10T03:16:24;2.20;;;1.87;;
8333;SDS011;4204;43.004;23.052;2023-05-10T03:18:54;2.37;;;2.17;;
8333;SDS011;4204;43.004;23.052;2023-05-10T03:21:24;2.13;;;1.93;;
8333;SDS011;4204;43.004;23.052;2023-05-10T03:23:54;2.00;;;1.90;;
8333;SDS011;4204;43.004;23.052;2023-05-10T03:26:26;2.50;;;2.30;;
8333;SDS011;4204;43.004;23.052;2023-05-10T03:29:03;2.83;;;2.40;;
8333;SDS011;4204;43.004;23.052;2023-05-10T03:31:31;2.73;;;2.53;;
8333;SDS011;4204;43.004;23.052;2023-05-10T03:33:59;2.93;;;2.63;;
8333;SDS011;4204;43.004;23.052;2023-05-10T03:36:27;3.57;;;3.27;;
8333;SDS011;4204;43.004;23.052;2023-05-10T03:38:55;7.83;;;3.90;;
8333;SDS011;4204;43.004;23.052;2023-05-10T03:41:22;3.67;;;3.37;;
8333;SDS011;4204;43.004;23.052;2023-05-10T03:43:51;5.17;;;4.67;;
8333;SDS011;4204;43.004;23.052;2023-05-10T03:46:19;5.60;;;4.57;;
8333;SDS011;4204;43.004;23.052;2023-05-10T03:48:47;5.30;;;4.80;;
8333;SDS011;4204;43.004;23.052;2023-05-10T03:51:14;5.70;;;5.03;;
8333;SDS011;4204;43.004;23.052;2023-05-10T03:53:41;4.83;;;4.43;;
8333;SDS011;4204;43.004;23.052;2023-05-10T03:56:08;5.20;;;4.50;;
8333;SDS011;4204;43.004;23.052;2023-05-10T03:58:36;4.83;;;4.40;;
8333;SDS011;4204;43.004;23.052;2023-05-10T04:01:03;5.03;;;4.53;;
8333;SDS011;4204;43.004;23.052;2023-05-10T04:03:32;4.60;;;4.10;;
8333;SDS011;4204;43.004;23.052;2023-05-10T04:06:01;4.80;;;4.17;;
8333;SDS011;4204;43.004;23.052;2023-05-10T04:08:29;5.57;;;4.90;;
8333;SDS011;4204;43.004;23.052;2023-05-10T04:11:04;5.10;;;4.50;;
8333;SDS011;4204;43.004;23.052;2023-05-10T04:13:31;4.73;;;4.33;;
8333;SDS011;4204;43.004;23.052;2023-05-10T04:15:59;4.33;;;3.93;;
8333;SDS011;4204;43.004;23.052;2023-05-10T04:18:26;5.07;;;4.40;;
8333;SDS011;4204;43.004;23.052;2023-05-10T04:20:54;4.27;;;3.87;;
8333;SDS011;4204;43.004;23.052;2023-05-10T04:23:22;6.00;;;4.57;;
8333;SDS011;4204;43.004;23.052;2023-05-10T04:25:49;4.50;;;4.10;;
8333;SDS011;4204;43.004;23.052;2023-05-10T04:28:16;4.87;;;4.37;;
8333;SDS011;4204;43.004;23.052;2023-05-10T04:30:43;4.83;;;4.33;;
8333;SDS011;4204;43.004;23.052;2023-05-10T04:33:11;4.97;;;4.40;;
8333;SDS011;4204;43.004;23.052;2023-05-10T04:35:38;5.10;;;4.47;;
8333;SDS011;4204;43.004;23.052;2023-05-10T04:38:07;5.37;;;4.50;;
8333;SDS011;4204;43.004;23.052;2023-05-10T04:40:34;5.27;;;4.63;;
8333;SDS011;4204;43.004;23.052;2023-05-10T04:43:01;5.60;;;4.53;;
8333;SDS011;4204;43.004;23.052;2023-05-10T04:45:29;4.63;;;4.13;;
8333;SDS011;4204;43.004;23.052;2023-05-10T04:47:56;4.43;;;3.70;;
8333;SDS011;4204;43.004;23.052;2023-05-10T04:50:23;5.20;;;4.17;;
8333;SDS011;4204;43.004;23.052;2023-05-10T04:52:50;4.83;;;3.70;;
8333;SDS011;4204;43.004;23.052;2023-05-10T04:55:19;5.90;;;4.00;;
8333;SDS011;4204;43.004;23.052;2023-05-10T04:57:46;4.70;;;3.70;;
8333;SDS011;4204;43.004;23.052;2023-05-10T05:00:14;4.83;;;3.70;;
8333;SDS011;4204;43.004;23.052;2023-05-10T05:02:42;5.07;;;3.47;;
8333;SDS011;4204;43.004;23.052;2023-05-10T05:05:09;5.03;;;3.30;;
8333;SDS011;4204;43.004;23.052;2023-05-10T05:07:36;5.63;;;3.20;;
8333;SDS011;4204;43.004;23.052;2023-05-10T05:10:06;4.10;;;3.40;;
8333;SDS011;4204;43.004;23.052;2023-05-10T05:12:35;5.53;;;3.20;;
8333;SDS011;4204;43.004;23.052;2023-05-10T05:15:02;4.10;;;3.30;;
8333;SDS011;4204;43.004;23.052;2023-05-10T05:17:30;3.73;;;3.00;;
8333;SDS011;4204;43.004;23.052;2023-05-10T05:19:57;4.17;;;3.23;;
8333;SDS011;4204;43.004;23.052;2023-05-10T05:22:24;6.10;;;3.43;;
8333;SDS011;4204;43.004;23.052;2023-05-10T05:24:53;7.37;;;4.27;;
8333;SDS011;4204;43.004;23.052;2023-05-10T05:27:21;5.77;;;4.23;;
8333;SDS011;4204;43.004;23.052;2023-05-10T05:29:51;5.90;;;5.00;;
8333;SDS011;4204;43.004;23.052;2023-05-10T05:32:19;4.47;;;3.37;;
8333;SDS011;4204;43.004;23.052;2023-05-10T05:34:46;4.07;;;3.20;;
8333;SDS011;4204;43.004;23.052;2023-05-10T05:37:13;3.10;;;2.80;;
8333;SDS011;4204;43.004;23.052;2023-05-10T05:39:41;5.10;;;2.83;;
8333;SDS011;4204;43.004;23.052;2023-05-10T05:42:08;3.60;;;3.20;;
8333;SDS011;4204;43.004;23.052;2023-05-10T05:44:36;4.70;;;3.23;;
8333;SDS011;4204;43.004;23.052;2023-05-10T05:47:05;3.13;;;2.83;;
8333;SDS011;4204;43.004;23.052;2023-05-10T05:49:32;4.07;;;3.10;;
8333;SDS011;4204;43.004;23.052;2023-05-10T05:51:59;5.73;;;3.03;;
8333;SDS011;4204;43.004;23.052;2023-05-10T05:54:27;3.77;;;2.93;;
8333;SDS011;4204;43.004;23.052;2023-05-10T05:56:55;3.43;;;2.80;;
8333;SDS011;4204;43.004;23.052;2023-05-10T05:59:22;3.10;;;2.80;;
8333;SDS011;4204;43.004;23.052;2023-05-10T06:01:49;3.17;;;2.73;;
8333;SDS011;4204;43.004;23.052;2023-05-10T06:04:18;4.13;;;2.97;;
8333;SDS011;4204;43.004;23.052;2023-05-10T06:06:46;4.37;;;3.13;;
8333;SDS011;4204;43.004;23.052;2023-05-10T06:09:13;4.10;;;2.47;;
8333;SDS011;4204;43.004;23.052;2023-05-10T06:11:40;3.37;;;2.80;;
8333;SDS011;4204;43.004;23.052;2023-05-10T06:14:08;3.40;;;2.87;;
8333;SDS011;4204;43.004;23.052;2023-05-10T06:16:35;5.07;;;2.90;;
8333;SDS011;4204;43.004;23.052;2023-05-10T06:19:02;3.37;;;2.97;;
8333;SDS011;4204;43.004;23.052;2023-05-10T06:21:31;4.83;;;3.53;;
8333;SDS011;4204;43.004;23.052;2023-05-10T06:23:58;4.77;;;3.77;;
8333;SDS011;4204;43.004;23.052;2023-05-10T06:26:25;3.80;;;3.10;;
8333;SDS011;4204;43.004;23.052;2023-05-10T06:28:53;4.60;;;3.47;;
8333;SDS011;4204;43.004;23.052;2023-05-10T06:31:20;3.23;;;2.93;;
8333;SDS011;4204;43.004;23.052;2023-05-10T06:33:47;5.50;;;4.00;;
8333;SDS011;4204;43.004;23.052;2023-05-10T06:36:15;3.50;;;2.93;;
8333;SDS011;4204;43.004;23.052;2023-05-10T06:38:44;3.70;;;3.27;;
8333;SDS011;4204;43.004;23.052;2023-05-10T06:41:11;5.13;;;3.60;;
8333;SDS011;4204;43.004;23.052;2023-05-10T06:43:38;3.30;;;2.97;;
8333;SDS011;4204;43.004;23.052;2023-05-10T06:46:07;3.50;;;3.00;;
8333;SDS011;4204;43.004;23.052;2023-05-10T06:48:34;3.37;;;3.07;;
8333;SDS011;4204;43.004;23.052;2023-05-10T06:51:03;3.37;;;2.97;;
8333;SDS011;4204;43.004;23.052;2023-05-10T06:53:31;4.47;;;3.10;;
8333;SDS011;4204;43.004;23.052;2023-05-10T06:55:59;4.37;;;2.77;;
8333;SDS011;4204;43.004;23.052;2023-05-10T06:58:28;4.77;;;3.20;;
8333;SDS011;4204;43.004;23.052;2023-05-10T07:01:01;3.93;;;2.77;;
8333;SDS011;4204;43.004;23.052;2023-05-10T07:03:28;3.50;;;2.73;;
8333;SDS011;4204;43.004;23.052;2023-05-10T07:05:59;3.37;;;2.90;;
8333;SDS011;4204;43.004;23.052;2023-05-10T07:08:27;3.83;;;2.90;;
8333;SDS011;4204;43.004;23.052;2023-05-10T07:11:00;4.10;;;3.13;;
8333;SDS011;4204;43.004;23.052;2023-05-10T07:13:27;13.23;;;9.43;;
8333;SDS011;4204;43.004;23.052;2023-05-10T07:15:55;16.23;;;11.47;;
8333;SDS011;4204;43.004;23.052;2023-05-10T07:18:22;5.27;;;3.40;;
8333;SDS011;4204;43.004;23.052;2023-05-10T07:20:49;4.97;;;3.20;;
8333;SDS011;4204;43.004;23.052;2023-05-10T07:23:16;2.90;;;2.60;;
8333;SDS011;4204;43.004;23.052;2023-05-10T07:25:45;2.87;;;2.57;;
8333;SDS011;4204;43.004;23.052;2023-05-10T07:28:14;2.93;;;2.70;;
8333;SDS011;4204;43.004;23.052;2023-05-10T07:30:42;2.63;;;2.43;;
8333;SDS011;4204;43.004;23.052;2023-05-10T07:33:09;4.70;;;2.70;;
8333;SDS011;4204;43.004;23.052;2023-05-10T07:35:37;3.07;;;2.07;;
8333;SDS011;4204;43.004;23.052;2023-05-10T07:38:04;3.83;;;2.53;;
8333;SDS011;4204;43.004;23.052;2023-05-10T07:40:32;3.47;;;2.40;;
8333;SDS011;4204;43.004;23.052;2023-05-10T07:42:59;4.37;;;2.60;;
8333;SDS011;4204;43.004;23.052;2023-05-10T07:45:28;3.97;;;2.80;;
8333;SDS011;4204;43.004;23.052;2023-05-10T07:47:56;4.70;;;2.60;;
8333;SDS011;4204;43.004;23.052;2023-05-10T07:50:23;3.10;;;2.60;;
8333;SDS011;4204;43.004;23.052;2023-05-10T07:52:50;2.63;;;2.40;;
8333;SDS011;4204;43.004;23.052;2023-05-10T07:55:18;2.53;;;2.27;;
8333;SDS011;4204;43.004;23.052;2023-05-10T07:57:45;3.07;;;2.77;;
8333;SDS011;4204;43.004;23.052;2023-05-10T08:00:13;4.87;;;2.70;;
8333;SDS011;4204;43.004;23.052;2023-05-10T08:02:44;3.90;;;2.70;;
8333;SDS011;4204;43.004;23.052;2023-05-10T08:05:12;3.03;;;2.67;;
8333;SDS011;4204;43.004;23.052;2023-05-10T08:07:39;2.93;;;2.73;;
8333;SDS011;4204;43.004;23.052;2023-05-10T08:10:07;3.13;;;2.50;;
8333;SDS011;4204;43.004;23.052;2023-05-10T08:12:34;2.77;;;2.50;;
8333;SDS011;4204;43.004;23.052;2023-05-10T08:15:02;3.97;;;2.90;;
8333;SDS011;4204;43.004;23.052;2023-05-10T08:17:29;2.80;;;2.60;;
8333;SDS011;4204;43.004;23.052;2023-05-10T08:19:58;2.90;;;2.40;;
8333;SDS011;4204;43.004;23.052;2023-05-10T08:22:25;5.40;;;2.30;;
8333;SDS011;4204;43.004;23.052;2023-05-10T08:24:53;3.03;;;2.80;;
8333;SDS011;4204;43.004;23.052;2023-05-10T08:27:20;3.27;;;2.87;;
8333;SDS011;4204;43.004;23.052;2023-05-10T08:29:47;4.00;;;3.03;;
8333;SDS011;4204;43.004;23.052;2023-05-10T08:32:15;2.83;;;2.60;;
8333;SDS011;4204;43.004;23.052;2023-05-10T08:34:42;3.00;;;2.70;;
8333;SDS011;4204;43.004;23.052;2023-05-10T08:37:10;3.33;;;3.00;;
8333;SDS011;4204;43.004;23.052;2023-05-10T08:39:39;5.80;;;2.83;;
8333;SDS011;4204;43.004;23.052;2023-05-10T08:42:06;3.40;;;2.90;;
8333;SDS011;4204;43.004;23.052;2023-05-10T08:44:34;3.00;;;2.70;;
8333;SDS011;4204;43.004;23.052;2023-05-10T08:47:02;4.17;;;3.10;;
8333;SDS011;4204;43.004;23.052;2023-05-10T08:49:31;3.27;;;2.97;;
8333;SDS011;4204;43.004;23.052;2023-05-10T08:51:59;8.37;;;3.43;;
8333;SDS011;4204;43.004;23.052;2023-05-10T08:54:30;5.03;;;3.60;;
8333;SDS011;4204;43.004;23.052;2023-05-10T08:56:58;3.97;;;3.50;;
8333;SDS011;4204;43.004;23.052;2023-05-10T08:59:25;4.27;;;3.53;;
8333;SDS011;4204;43.004;23.052;2023-05-10T09:01:52;4.17;;;3.17;;
8333;SDS011;4204;43.004;23.052;2023-05-10T09:04:21;4.50;;;3.40;;
8333;SDS011;4204;43.004;23.052;2023-05-10T09:06:48;4.57;;;3.63;;
8333;SDS011;4204;43.004;23.052;2023-05-10T09:09:15;3.87;;;3.30;;
8333;SDS011;4204;43.004;23.052;2023-05-10T09:11:44;3.63;;;3.30;;
8333;SDS011;4204;43.004;23.052;2023-05-10T09:14:11;6.00;;;3.80;;
8333;SDS011;4204;43.004;23.052;2023-05-10T09:16:39;3.93;;;3.40;;
8333;SDS011;4204;43.004;23.052;2023-05-10T09:19:07;5.37;;;4.10;;
8333;SDS011;4204;43.004;23.052;2023-05-10T09:21:35;4.10;;;3.70;;
8333;SDS011;4204;43.004;23.052;2023-05-10T09:24:04;4.57;;;3.97;;
8333;SDS011;4204;43.004;23.052;2023-05-10T09:26:31;6.30;;;4.07;;
8333;SDS011;4204;43.004;23.052;2023-05-10T09:29:00;4.93;;;3.60;;
8333;SDS011;4204;43.004;23.052;2023-05-10T09:34:20;5.23;;;4.00;;
8333;SDS011;4204;43.004;23.052;2023-05-10T09:36:53;4.43;;;3.77;;
8333;SDS011;4204;43.004;23.052;2023-05-10T09:39:20;4.00;;;3.60;;
8333;SDS011;4204;43.004;23.052;2023-05-10T09:41:48;3.80;;;3.40;;
8333;SDS011;4204;43.004;23.052;2023-05-10T09:44:17;5.07;;;3.83;;
8333;SDS011;4204;43.004;23.052;2023-05-10T09:46:49;3.93;;;3.50;;
8333;SDS011;4204;43.004;23.052;2023-05-10T09:49:18;5.83;;;4.00;;
8333;SDS011;4204;43.004;23.052;2023-05-10T09:51:45;3.63;;;3.30;;
8333;SDS011;4204;43.004;23.052;2023-05-10T09:54:14;3.87;;;3.43;;
8333;SDS011;4204;43.004;23.052;2023-05-10T09:56:41;4.40;;;4.00;;
8333;SDS011;4204;43.004;23.052;2023-05-10T09:59:10;5.90;;;4.37;;
8333;SDS011;4204;43.004;23.052;2023-05-10T10:01:38;5.37;;;4.27;;
8333;SDS011;4204;43.004;23.052;2023-05-10T10:04:06;4.20;;;3.73;;
8333;SDS011;4204;43.004;23.052;2023-05-10T10:06:37;5.63;;;4.03;;
8333;SDS011;4204;43.004;23.052;2023-05-10T10:09:04;6.30;;;4.93;;
8333;SDS011;4204;43.004;23.052;2023-05-10T10:11:33;5.43;;;4.73;;
8333;SDS011;4204;43.004;23.052;2023-05-10T10:14:01;4.00;;;3.60;;
8333;SDS011;4204;43.004;23.052;2023-05-10T10:16:29;4.00;;;3.50;;
8333;SDS011;4204;43.004;23.052;2023-05-10T10:18:58;6.93;;;4.20;;
8333;SDS011;4204;43.004;23.052;2023-05-10T10:21:25;5.80;;;3.97;;
8333;SDS011;4204;43.004;23.052;2023-05-10T10:23:53;4.27;;;3.87;;
8333;SDS011;4204;43.004;23.052;2023-05-10T10:30:16;4.80;;;3.93;;
8333;SDS011;4204;43.004;23.052;2023-05-10T10:32:59;4.47;;;4.03;;
8333;SDS011;4204;43.004;23.052;2023-05-10T10:35:38;5.73;;;3.80;;
8333;SDS011;4204;43.004;23.052;2023-05-10T10:38:07;5.53;;;4.07;;
8333;SDS011;4204;43.004;23.052;2023-05-10T10:40:35;5.03;;;3.63;;
8333;SDS011;4204;43.004;23.052;2023-05-10T10:46:09;7.80;;;4.23;;
8333;SDS011;4204;43.004;23.052;2023-05-10T10:48:40;4.40;;;3.70;;
8333;SDS011;4204;43.004;23.052;2023-05-10T10:51:08;4.23;;;3.60;;
8333;SDS011;4204;43.004;23.052;2023-05-10T10:53:36;3.80;;;3.50;;
8333;SDS011;4204;43.004;23.052;2023-05-10T10:56:06;6.80;;;4.17;;
8333;SDS011;4204;43.004;23.052;2023-05-10T10:58:35;4.83;;;3.80;;
8333;SDS011;4204;43.004;23.052;2023-05-10T11:01:13;3.97;;;3.57;;
8333;SDS011;4204;43.004;23.052;2023-05-10T11:03:54;6.17;;;3.43;;
8333;SDS011;4204;43.004;23.052;2023-05-10T11:06:42;3.80;;;3.43;;
8333;SDS011;4204;43.004;23.052;2023-05-10T11:09:11;5.27;;;3.73;;
8333;SDS011;4204;43.004;23.052;2023-05-10T11:11:48;5.87;;;3.50;;
8333;SDS011;4204;43.004;23.052;2023-05-10T11:14:20;3.90;;;3.50;;
8333;SDS011;4204;43.004;23.052;2023-05-10T11:16:50;4.30;;;3.90;;
8333;SDS011;4204;43.004;23.052;2023-05-10T11:19:18;5.37;;;3.77;;
8333;SDS011;4204;43.004;23.052;2023-05-10T11:21:46;3.83;;;3.50;;
8333;SDS011;4204;43.004;23.052;2023-05-10T11:24:17;4.33;;;3.50;;
8333;SDS011;4204;43.004;23.052;2023-05-10T11:26:48;7.27;;;6.00;;
8333;SDS011;4204;43.004;23.052;2023-05-10T11:29:17;5.57;;;4.10;;
8333;SDS011;4204;43.004;23.052;2023-05-10T11:31:46;5.17;;;4.30;;
8333;SDS011;4204;43.004;23.052;2023-05-10T11:34:25;5.20;;;4.60;;
8333;SDS011;4204;43.004;23.052;2023-05-10T11:36:54;9.03;;;5.60;;
8333;SDS011;4204;43.004;23.052;2023-05-10T11:39:25;7.67;;;6.20;;
8333;SDS011;4204;43.004;23.052;2023-05-10T11:41:54;4.00;;;3.60;;
8333;SDS011;4204;43.004;23.052;2023-05-10T11:44:22;4.40;;;3.70;;
8333;SDS011;4204;43.004;23.052;2023-05-10T11:46:51;5.77;;;4.80;;
8333;SDS011;4204;43.004;23.052;2023-05-10T11:49:19;5.20;;;3.70;;
8333;SDS011;4204;43.004;23.052;2023-05-10T11:51:52;4.43;;;3.67;;
8333;SDS011;4204;43.004;23.052;2023-05-10T11:54:20;5.77;;;3.83;;
8333;SDS011;4204;43.004;23.052;2023-05-10T11:56:48;4.80;;;3.70;;
8333;SDS011;4204;43.004;23.052;2023-05-10T11:59:17;4.87;;;3.60;;
8333;SDS011;4204;43.004;23.052;2023-05-10T12:01:45;5.73;;;3.87;;
8333;SDS011;4204;43.004;23.052;2023-05-10T12:04:13;5.63;;;3.43;;
8333;SDS011;4204;43.004;23.052;2023-05-10T12:06:41;3.93;;;3.53;;
8333;SDS011;4204;43.004;23.052;2023-05-10T12:09:10;4.63;;;3.73;;
8333;SDS011;4204;43.004;23.052;2023-05-10T12:11:38;4.13;;;3.70;;
8333;SDS011;4204;43.004;23.052;2023-05-10T12:14:07;4.73;;;3.90;;
8333;SDS011;4204;43.004;23.052;2023-05-10T12:16:35;7.77;;;3.80;;
8333;SDS011;4204;43.004;23.052;2023-05-10T12:19:03;3.80;;;3.33;;
8333;SDS011;4204;43.004;23.052;2023-05-10T12:21:31;6.27;;;3.70;;
8333;SDS011;4204;43.004;23.052;2023-05-10T12:24:00;4.10;;;3.67;;
8333;SDS011;4204;43.004;23.052;2023-05-10T12:26:30;5.80;;;3.33;;
8333;SDS011;4204;43.004;23.052;2023-05-10T12:29:11;3.80;;;3.33;;
8333;SDS011;4204;43.004;23.052;2023-05-10T12:31:50;3.63;;;3.30;;
8333;SDS011;4204;43.004;23.052;2023-05-10T12:34:30;4.80;;;3.27;;
8333;SDS011;4204;43.004;23.052;2023-05-10T12:36:59;4.00;;;3.50;;
8333;SDS011;4204;43.004;23.052;2023-05-10T12:39:37;3.87;;;3.17;;
8333;SDS011;4204;43.004;23.052;2023-05-10T12:42:07;3.77;;;3.37;;
8333;SDS011;4204;43.004;23.052;2023-05-10T12:44:35;4.40;;;4.00;;
8333;SDS011;4204;43.004;23.052;2023-05-10T12:47:03;10.37;;;6.90;;
8333;SDS011;4204;43.004;23.052;2023-05-10T12:49:31;6.57;;;4.37;;
8333;SDS011;4204;43.004;23.052;2023-05-10T12:51:59;4.77;;;3.80;;
8333;SDS011;4204;43.004;23.052;2023-05-10T12:54:27;5.77;;;3.37;;
8333;SDS011;4204;43.004;23.052;2023-05-10T12:56:55;7.30;;;3.90;;
8333;SDS011;4204;43.004;23.052;2023-05-10T12:59:24;6.13;;;3.60;;
8333;SDS011;4204;43.004;23.052;2023-05-10T13:01:52;7.97;;;4.20;;
8333;SDS011;4204;43.004;23.052;2023-05-10T13:04:20;6.13;;;3.90;;
8333;SDS011;4204;43.004;23.052;2023-05-10T13:06:47;3.47;;;3.17;;
8333;SDS011;4204;43.004;23.052;2023-05-10T13:09:15;4.07;;;3.37;;
8333;SDS011;4204;43.004;23.052;2023-05-10T13:11:43;4.00;;;3.60;;
8333;SDS011;4204;43.004;23.052;2023-05-10T13:14:11;8.47;;;3.60;;
8333;SDS011;4204;43.004;23.052;2023-05-10T13:16:40;4.17;;;3.60;;
8333;SDS011;4204;43.004;23.052;2023-05-10T13:19:08;5.53;;;3.63;;
8333;SDS011;4204;43.004;23.052;2023-05-10T13:21:37;3.67;;;3.23;;
8333;SDS011;4204;43.004;23.052;2023-05-10T13:24:06;4.47;;;3.67;;
8333;SDS011;4204;43.004;23.052;2023-05-10T13:26:34;4.07;;;3.67;;
8333;SDS011;4204;43.004;23.052;2023-05-10T13:29:02;7.00;;;4.10;;
8333;SDS011;4204;43.004;23.052;2023-05-10T13:31:30;4.93;;;4.40;;
8333;SDS011;4204;43.004;23.052;2023-05-10T13:33:59;7.03;;;5.27;;
8333;SDS011;4204;43.004;23.052;2023-05-10T13:38:55;4.37;;;3.70;;
8333;SDS011;4204;43.004;23.052;2023-05-10T13:41:23;4.90;;;3.67;;
8333;SDS011;4204;43.004;23.052;2023-05-10T13:43:51;4.20;;;3.80;;
8333;SDS011;4204;43.004;23.052;2023-05-10T13:46:19;3.70;;;3.33;;
8333;SDS011;4204;43.004;23.052;2023-05-10T13:48:47;4.43;;;3.90;;
8333;SDS011;4204;43.004;23.052;2023-05-10T13:51:14;3.93;;;3.53;;
8333;SDS011;4204;43.004;23.052;2023-05-10T13:53:42;5.40;;;4.10;;
8333;SDS011;4204;43.004;23.052;2023-05-10T13:56:11;5.37;;;4.50;;
8333;SDS011;4204;43.004;23.052;2023-05-10T13:58:39;6.57;;;4.30;;
8333;SDS011;4204;43.004;23.052;2023-05-10T14:01:07;6.63;;;4.10;;
8333;SDS011;4204;43.004;23.052;2023-05-10T14:03:35;4.93;;;3.60;;
8333;SDS011;4204;43.004;23.052;2023-05-10T14:06:03;4.90;;;4.30;;
8333;SDS011;4204;43.004;23.052;2023-05-10T14:08:31;5.60;;;4.00;;
8333;SDS011;4204;43.004;23.052;2023-05-10T14:10:58;7.37;;;4.60;;
8333;SDS011;4204;43.004;23.052;2023-05-10T14:13:28;9.47;;;6.43;;
8333;SDS011;4204;43.004;23.052;2023-05-10T14:15:55;6.30;;;4.30;;
8333;SDS011;4204;43.004;23.052;2023-05-10T14:18:24;6.03;;;4.07;;
8333;SDS011;4204;43.004;23.052;2023-05-10T14:20:52;4.70;;;4.00;;
8333;SDS011;4204;43.004;23.052;2023-05-10T14:23:21;4.60;;;4.10;;
8333;SDS011;4204;43.004;23.052;2023-05-10T14:25:50;5.20;;;4.20;;
8333;SDS011;4204;43.004;23.052;2023-05-10T14:28:19;4.67;;;3.97;;
8333;SDS011;4204;43.004;23.052;2023-05-10T14:30:50;5.93;;;4.37;;
8333;SDS011;4204;43.004;23.052;2023-05-10T14:33:17;6.10;;;4.10;;
8333;SDS011;4204;43.004;23.052;2023-05-10T14:35:46;6.60;;;3.83;;
8333;SDS011;4204;43.004;23.052;2023-05-10T14:38:14;6.30;;;4.23;;
8333;SDS011;4204;43.004;23.052;2023-05-10T14:42:52;4.77;;;4.07;;
8333;SDS011;4204;43.004;23.052;2023-05-10T14:45:20;5.03;;;3.70;;
8333;SDS011;4204;43.004;23.052;2023-05-10T14:47:48;4.80;;;4.17;;
8333;SDS011;4204;43.004;23.052;2023-05-10T14:50:16;5.47;;;4.30;;
8333;SDS011;4204;43.004;23.052;2023-05-10T14:52:44;7.30;;;4.43;;
8333;SDS011;4204;43.004;23.052;2023-05-10T14:55:13;7.97;;;5.70;;
8333;SDS011;4204;43.004;23.052;2023-05-10T14:57:41;6.53;;;4.50;;
8333;SDS011;4204;43.004;23.052;2023-05-10T15:00:12;5.33;;;4.83;;
8333;SDS011;4204;43.004;23.052;2023-05-10T15:02:41;5.20;;;4.20;;
8333;SDS011;4204;43.004;23.052;2023-05-10T15:05:09;5.67;;;4.30;;
8333;SDS011;4204;43.004;23.052;2023-05-10T15:07:37;8.67;;;4.87;;
8333;SDS011;4204;43.004;23.052;2023-05-10T15:10:05;6.97;;;4.67;;
8333;SDS011;4204;43.004;23.052;2023-05-10T15:12:33;8.10;;;5.27;;
8333;SDS011;4204;43.004;23.052;2023-05-10T15:15:01;7.43;;;5.67;;
8333;SDS011;4204;43.004;23.052;2023-05-10T15:17:31;9.07;;;5.50;;
8333;SDS011;4204;43.004;23.052;2023-05-10T15:19:59;11.37;;;5.67;;
8333;SDS011;4204;43.004;23.052;2023-05-10T15:22:28;6.57;;;5.17;;
8333;SDS011;4204;43.004;23.052;2023-05-10T15:24:57;6.70;;;5.63;;
8333;SDS011;4204;43.004;23.052;2023-05-10T15:27:26;6.57;;;5.57;;